Time;durP1;ratioP1;P1;durP2;ratioP2;P2;SDS_P1;SDS_P2;PMS_P1;PMS_P2;Temp;Humidity;BMP_temperature;BMP_pressure;BME280_temperature;BME280_humidity;BME280_pressure;Samples;Min_cycle;Max_cycle;Signal;HPM_P1;HPM_P2
2023/03/29 00:01:05;;;;;;;18.32;14.95;;;26.10;96.20;;;;;;1869116;75;21125;-78
2023/03/29 00:03:38;;;;;;;19.17;14.47;;;26.20;96.30;;;;;;1880889;75;21127;-78
2023/03/29 00:06:14;;;;;;;20.00;14.85;;;26.30;96.30;;;;;;1869216;76;21126;-78
2023/03/29 00:09:04;;;;;;;19.55;14.65;;;26.30;96.30;;;;;;1874964;75;21119;-78
2023/03/29 00:11:35;;;;;;;18.85;16.00;;;26.40;96.30;;;;;;1881821;75;21156;-79
2023/03/29 00:14:06;;;;;;;21.35;17.07;;;26.50;96.20;;;;;;1877883;75;21214;-77
2023/03/29 00:16:38;;;;;;;20.55;15.93;;;26.50;96.00;;;;;;1835127;77;21400;-78
2023/03/29 00:19:09;;;;;;;23.42;15.38;;;26.60;95.90;;;;;;1861019;75;21172;-78
2023/03/29 00:21:40;;;;;;;19.25;15.68;;;26.70;95.80;;;;;;1886010;75;21280;-80
2023/03/29 00:24:11;;;;;;;18.27;16.35;;;26.80;95.60;;;;;;1880697;75;21195;-79
2023/03/29 00:26:43;;;;;;;18.98;16.97;;;26.80;95.60;;;;;;1881297;76;21417;-74
2023/03/29 00:29:14;;;;;;;20.17;15.18;;;;;;;;;;1898514;75;21365;-77
2023/03/29 00:31:52;;;;;;;19.50;16.77;;;27.00;99.90;;;;;;1884570;74;21580;-76
2023/03/29 00:34:18;;;;;;;18.25;16.37;;;26.90;95.40;;;;;;1880586;75;21135;-75
2023/03/29 00:36:49;;;;;;;21.50;16.85;;;26.90;95.40;;;;;;1882168;75;21123;-75
2023/03/29 00:39:21;;;;;;;23.87;18.62;;;26.90;95.10;;;;;;1911136;75;21164;-76
2023/03/29 00:41:52;;;;;;;20.12;17.05;;;26.90;95.30;;;;;;1893135;74;21100;-76
2023/03/29 00:45:00;;;;;;;18.90;15.28;;;26.80;95.10;;;;;;1894975;74;21537;-75
2023/03/29 00:47:46;;;;;;;21.95;17.05;;;26.70;95.00;;;;;;1893941;74;21135;-75
2023/03/29 00:50:25;;;;;;;20.77;17.42;;;26.80;95.20;;;;;;1868494;74;21940;-76
2023/03/29 00:53:04;;;;;;;25.32;17.25;;;26.70;95.10;;;;;;1877057;75;21129;-76
2023/03/29 00:55:37;;;;;;;25.08;17.75;;;26.80;95.00;;;;;;1885829;75;21133;-76
2023/03/29 00:58:11;;;;;;;20.72;16.30;;;26.80;95.30;;;;;;1872785;74;21417;-76
2023/03/29 01:00:54;;;;;;;18.87;16.25;;;26.90;95.30;;;;;;1894572;74;21135;-75
2023/03/29 01:03:27;;;;;;;19.92;16.25;;;26.90;95.20;;;;;;1873186;74;21209;-74
2023/03/29 01:06:01;;;;;;;19.55;16.48;;;26.90;95.10;;;;;;1878728;74;21169;-76
2023/03/29 01:08:41;;;;;;;18.07;16.12;;;26.90;95.20;;;;;;1878000;74;21874;-75
2023/03/29 01:11:17;;;;;;;18.40;15.98;;;27.00;94.70;;;;;;1854096;75;21152;-77
2023/03/29 01:13:51;;;;;;;19.87;16.93;;;26.90;94.80;;;;;;1860353;75;21403;-76
2023/03/29 01:16:24;;;;;;;19.62;16.65;;;26.90;94.90;;;;;;1841590;77;21159;-75
2023/03/29 01:18:57;;;;;;;16.62;14.90;;;27.00;95.20;;;;;;1838460;75;21630;-75
2023/03/29 01:21:33;;;;;;;21.45;15.88;;;27.00;95.00;;;;;;1886153;75;21726;-74
2023/03/29 01:24:16;;;;;;;18.40;16.45;;;27.10;94.80;;;;;;1845214;75;21147;-75
2023/03/29 01:27:02;;;;;;;19.35;16.55;;;27.10;94.70;;;;;;1871407;75;21153;-76
2023/03/29 01:29:38;;;;;;;19.45;16.15;;;27.20;94.70;;;;;;1879587;75;21414;-73
2023/03/29 01:32:18;;;;;;;19.98;16.82;;;27.20;94.40;;;;;;1889556;75;21135;-77
2023/03/29 01:34:57;;;;;;;17.85;15.78;;;27.20;94.50;;;;;;1868771;75;21376;-77
2023/03/29 01:37:36;;;;;;;20.25;15.75;;;27.30;93.80;;;;;;1879491;74;21536;-79
2023/03/29 01:40:10;;;;;;;16.95;14.50;;;27.30;93.80;;;;;;1878940;75;21141;-79
2023/03/29 01:42:52;;;;;;;21.48;18.12;;;27.30;93.90;;;;;;1864178;75;21176;-76
2023/03/29 01:45:26;;;;;;;23.70;17.10;;;27.40;94.00;;;;;;1838987;76;21432;-74
2023/03/29 01:48:16;;;;;;;20.52;16.12;;;27.50;93.80;;;;;;1854269;75;21583;-78
2023/03/29 01:50:56;;;;;;;23.87;16.73;;;27.50;94.00;;;;;;1833287;77;21160;-76
2023/03/29 01:53:36;;;;;;;21.00;16.55;;;27.60;94.00;;;;;;1821050;78;21160;-76
2023/03/29 01:56:10;;;;;;;19.10;16.75;;;27.70;93.80;;;;;;1859609;74;22268;-74
2023/03/29 01:58:43;;;;;;;20.65;16.62;;;27.70;93.70;;;;;;1881050;74;21135;-74
2023/03/29 02:01:17;;;;;;;22.15;17.20;;;27.80;93.60;;;;;;1873264;74;21570;-75
2023/03/29 02:03:53;;;;;;;18.75;16.77;;;27.90;93.40;;;;;;1860303;75;21234;-76
2023/03/29 02:06:26;;;;;;;25.32;17.15;;;28.00;93.70;;;;;;1850490;75;21170;-76
2023/03/29 02:08:57;;;;;;;23.27;18.25;;;28.10;93.20;;;;;;1885134;74;21155;-73
2023/03/29 02:11:31;;;;;;;22.32;17.70;;;28.20;93.00;;;;;;1873961;75;21451;-77
2023/03/29 02:14:02;;;;;;;18.27;16.37;;;28.40;93.00;;;;;;1874904;74;21120;-75
2023/03/29 02:16:41;;;;;;;18.67;16.67;;;28.50;92.50;;;;;;1873982;74;21288;-74
2023/03/29 02:19:15;;;;;;;21.12;18.87;;;28.60;92.40;;;;;;1864006;75;21109;-73
2023/03/29 02:21:52;;;;;;;20.70;18.23;;;28.70;92.10;;;;;;1861321;75;21464;-73
2023/03/29 02:24:23;;;;;;;19.62;17.57;;;28.80;91.70;;;;;;1864095;77;21200;-73
2023/03/29 02:26:55;;;;;;;25.02;18.95;;;28.90;91.70;;;;;;1876089;75;21143;-73
2023/03/29 02:29:31;;;;;;;21.12;18.82;;;28.90;91.70;;;;;;1867479;74;21187;-74
2023/03/29 02:32:17;;;;;;;23.92;18.82;;;29.00;91.90;;;;;;1850401;75;21386;-74
2023/03/29 02:34:50;;;;;;;20.13;17.70;;;29.10;91.80;;;;;;1861216;75;21242;-73
2023/03/29 02:37:25;;;;;;;20.45;18.02;;;29.20;91.50;;;;;;1864249;75;21191;-74
2023/03/29 02:39:58;;;;;;;20.43;17.63;;;29.30;91.20;;;;;;1866690;75;21626;-73
2023/03/29 02:42:31;;;;;;;19.70;17.60;;;29.40;91.50;;;;;;1834845;76;21156;-75
2023/03/29 02:45:02;;;;;;;21.48;19.17;;;29.50;91.30;;;;;;1862981;76;21135;-74
2023/03/29 02:47:44;;;;;;;21.97;17.52;;;29.50;91.20;;;;;;1867127;75;21167;-73
2023/03/29 02:50:16;;;;;;;20.43;18.30;;;29.50;91.50;;;;;;1878419;74;21623;-75
2023/03/29 02:52:53;;;;;;;23.25;18.75;;;29.50;91.60;;;;;;1887812;74;21587;-76
2023/03/29 02:55:24;;;;;;;;;;;29.40;92.00;;;;;;1890774;74;21159;-74
2023/03/29 02:58:05;;;;;;;;;;;;;;;;;;;;;
2023/03/29 03:00:32;;;;;;;19.70;17.60;;;29.10;92.50;;;;;;1873198;75;21421;-74
2023/03/29 03:03:05;;;;;;;19.50;17.37;;;28.90;92.70;;;;;;1889381;74;21167;-76
2023/03/29 03:05:37;;;;;;;21.48;16.40;;;28.70;92.80;;;;;;1879791;74;21673;-74
2023/03/29 03:08:08;;;;;;;19.17;16.37;;;28.60;92.60;;;;;;1878026;76;21879;-74
2023/03/29 03:10:39;;;;;;;18.95;16.42;;;28.50;92.70;;;;;;1873983;75;21639;-74
2023/03/29 03:13:10;;;;;;;21.68;16.80;;;28.50;92.70;;;;;;1835634;76;21436;-75
2023/03/29 03:15:41;;;;;;;19.52;17.37;;;28.40;92.90;;;;;;1871257;75;21257;-73
2023/03/29 03:18:13;;;;;;;21.17;17.27;;;28.50;92.90;;;;;;1876149;76;21140;-75
2023/03/29 03:20:45;;;;;;;22.75;18.05;;;28.40;93.00;;;;;;1840027;76;21430;-74
2023/03/29 03:23:16;;;;;;;22.05;17.27;;;28.50;92.90;;;;;;1856063;76;21165;-74
2023/03/29 03:25:48;;;;;;;19.07;17.05;;;28.60;92.80;;;;;;1873642;76;21650;-73
2023/03/29 03:28:19;;;;;;;19.00;14.25;;;28.60;92.20;;;;;;1870775;75;22077;-72
2023/03/29 03:30:53;;;;;;;15.15;13.62;;;28.70;91.90;;;;;;1884615;75;22155;-74
2023/03/29 03:33:29;;;;;;;15.85;13.48;;;28.80;91.70;;;;;;1862903;75;21136;-76
2023/03/29 03:36:06;;;;;;;18.48;13.60;;;28.90;90.60;;;;;;1835765;77;21532;-77
2023/03/29 03:38:38;;;;;;;18.52;13.98;;;28.90;90.60;;;;;;1869422;76;21102;-75
2023/03/29 03:41:09;;;;;;;16.02;13.08;;;28.90;90.70;;;;;;1864785;75;21131;-76
2023/03/29 03:43:42;;;;;;;17.73;14.55;;;28.90;90.30;;;;;;1880348;76;21135;-76
2023/03/29 03:46:13;;;;;;;16.52;14.30;;;28.90;90.20;;;;;;1872097;76;21241;-77
2023/03/29 03:48:45;;;;;;;20.20;15.40;;;28.80;90.20;;;;;;1870051;76;21153;-76
2023/03/29 03:51:17;;;;;;;16.60;14.35;;;28.80;90.40;;;;;;1872876;75;21174;-74
2023/03/29 03:53:48;;;;;;;18.98;16.27;;;28.70;90.70;;;;;;1864096;75;21392;-74
2023/03/29 03:56:19;;;;;;;17.70;15.32;;;28.80;90.80;;;;;;1861716;75;21199;-74
2023/03/29 03:58:50;;;;;;;17.75;14.90;;;28.90;91.00;;;;;;1867214;75;21189;-75
2023/03/29 04:01:22;;;;;;;18.37;15.93;;;28.90;90.60;;;;;;1856609;75;21155;-74
2023/03/29 04:03:53;;;;;;;19.23;17.32;;;28.90;90.70;;;;;;1878250;75;21166;-75
2023/03/29 04:06:29;;;;;;;19.37;17.37;;;28.90;90.70;;;;;;1866804;75;21175;-78
2023/03/29 04:08:58;;;;;;;19.60;17.10;;;28.90;90.90;;;;;;1875128;74;21184;-76
2023/03/29 04:11:30;;;;;;;18.62;16.73;;;28.90;90.90;;;;;;1842145;77;21209;-77
2023/03/29 04:14:01;;;;;;;18.92;16.25;;;28.90;91.00;;;;;;1877569;75;21629;-77
2023/03/29 04:16:33;;;;;;;21.07;17.87;;;29.00;90.90;;;;;;1883973;74;21216;-76
2023/03/29 04:19:04;;;;;;;21.23;17.73;;;29.00;91.00;;;;;;1856985;76;21670;-76
2023/03/29 04:21:35;;;;;;;19.20;16.60;;;29.00;90.60;;;;;;1884681;74;21949;-77
2023/03/29 04:24:06;;;;;;;52.50;19.62;;;29.10;90.50;;;;;;1917370;74;21080;-76
2023/03/29 04:26:38;;;;;;;21.70;16.25;;;29.10;90.60;;;;;;1896261;75;21141;-76
2023/03/29 04:29:09;;;;;;;21.70;15.98;;;29.10;90.40;;;;;;1884452;75;21273;-75
2023/03/29 04:31:41;;;;;;;24.25;15.65;;;29.10;89.70;;;;;;1891489;74;21121;-74
2023/03/29 04:34:12;;;;;;;22.37;16.80;;;29.10;89.50;;;;;;1884055;75;21532;-75
2023/03/29 04:36:43;;;;;;;16.77;15.03;;;29.00;90.00;;;;;;1914520;74;21873;-74
2023/03/29 04:39:16;;;;;;;19.15;16.40;;;29.10;90.30;;;;;;1883369;75;21139;-74
2023/03/29 04:41:47;;;;;;;21.27;17.37;;;29.20;90.40;;;;;;1871651;75;21103;-75
2023/03/29 04:44:18;;;;;;;17.70;15.90;;;29.40;90.20;;;;;;1870329;75;21114;-74
2023/03/29 04:46:50;;;;;;;17.50;15.68;;;29.60;90.10;;;;;;1858181;75;21112;-75
2023/03/29 04:49:21;;;;;;;16.93;15.20;;;29.70;89.10;;;;;;1865785;76;22051;-76
2023/03/29 04:51:53;;;;;;;17.70;14.98;;;29.80;89.20;;;;;;1856411;77;21125;-74
2023/03/29 04:54:36;;;;;;;16.25;14.65;;;29.90;88.30;;;;;;1831264;76;21194;-74
2023/03/29 04:57:05;;;;;;;17.52;14.50;;;30.00;87.60;;;;;;1876911;75;21269;-74
2023/03/29 04:59:37;;;;;;;14.87;13.40;;;30.20;86.40;;;;;;1883548;76;21249;-74
2023/03/29 05:02:08;;;;;;;14.80;13.32;;;30.40;86.00;;;;;;1849811;76;21147;-74
2023/03/29 05:04:45;;;;;;;14.15;12.75;;;30.50;85.60;;;;;;1887186;75;21087;-77
2023/03/29 05:07:14;;;;;;;14.40;12.90;;;30.60;84.90;;;;;;1873149;74;21119;-74
2023/03/29 05:09:46;;;;;;;15.72;13.60;;;30.70;84.30;;;;;;1874476;74;21982;-74
2023/03/29 05:12:17;;;;;;;14.13;10.90;;;30.70;84.10;;;;;;1881733;76;21200;-74
2023/03/29 05:14:48;;;;;;;14.50;11.57;;;30.80;82.00;;;;;;1884143;76;21204;-75
2023/03/29 05:17:20;;;;;;;19.45;12.40;;;30.80;82.00;;;;;;1886776;75;21131;-74
2023/03/29 05:19:51;;;;;;;24.05;12.85;;;30.80;82.50;;;;;;1869893;74;22050;-74
2023/03/29 05:22:22;;;;;;;13.53;11.38;;;30.70;82.50;;;;;;1889505;75;21656;-74
2023/03/29 05:24:54;;;;;;;11.65;10.05;;;30.70;81.40;;;;;;1883851;75;21114;-72
2023/03/29 05:27:28;;;;;;;11.55;10.30;;;30.70;82.00;;;;;;1878884;75;21625;-73
2023/03/29 05:30:08;;;;;;;12.78;10.40;;;30.70;80.60;;;;;;1881260;75;21059;-74
2023/03/29 05:32:32;;;;;;;11.85;9.45;;;30.70;80.40;;;;;;1880815;75;21120;-73
2023/03/29 05:35:05;;;;;;;16.00;10.45;;;30.60;80.60;;;;;;1875884;75;21697;-73
2023/03/29 05:37:37;;;;;;;11.88;10.23;;;30.60;80.60;;;;;;1885933;75;21909;-72
2023/03/29 05:40:09;;;;;;;10.45;9.35;;;30.60;80.30;;;;;;1883676;75;21842;-74
2023/03/29 05:42:40;;;;;;;10.53;9.43;;;30.60;79.00;;;;;;1884257;76;21401;-72
2023/03/29 05:45:12;;;;;;;11.18;9.70;;;30.70;79.30;;;;;;1854377;75;21141;-73
2023/03/29 05:47:43;;;;;;;10.25;9.20;;;30.70;79.50;;;;;;1902677;75;21096;-74
2023/03/29 05:50:14;;;;;;;10.72;9.63;;;30.90;80.90;;;;;;1864273;76;21342;-73
2023/03/29 05:52:46;;;;;;;12.30;9.80;;;31.00;79.50;;;;;;1883811;76;21382;-74
2023/03/29 05:55:17;;;;;;;13.18;9.93;;;31.20;79.30;;;;;;1882251;75;21350;-74
2023/03/29 05:57:48;;;;;;;10.60;9.45;;;31.40;78.00;;;;;;1880119;75;21221;-74
2023/03/29 06:00:24;;;;;;;13.28;9.88;;;31.50;78.20;;;;;;1883336;76;21188;-75
2023/03/29 06:02:55;;;;;;;9.90;9.00;;;31.70;77.10;;;;;;1881607;76;21114;-73
2023/03/29 06:05:28;;;;;;;11.65;10.28;;;31.80;75.80;;;;;;1870723;75;21609;-74
2023/03/29 06:07:59;;;;;;;12.53;10.30;;;31.90;75.40;;;;;;1852404;76;21208;-76
2023/03/29 06:10:32;;;;;;;12.10;10.03;;;31.80;74.40;;;;;;1832077;78;21180;-75
2023/03/29 06:13:05;;;;;;;14.35;10.78;;;31.70;74.50;;;;;;1872412;75;21188;-73
2023/03/29 06:15:37;;;;;;;11.73;9.65;;;31.50;74.90;;;;;;1865029;76;21434;-74
2023/03/29 06:18:08;;;;;;;11.48;9.18;;;31.30;76.00;;;;;;1861380;75;21184;-75
2023/03/29 06:20:39;;;;;;;12.03;10.30;;;31.20;76.80;;;;;;1867306;76;21119;-74
2023/03/29 06:23:11;;;;;;;11.85;10.45;;;31.10;77.00;;;;;;1869400;76;21133;-76
2023/03/29 06:25:43;;;;;;;11.88;9.48;;;31.00;77.20;;;;;;1869294;75;21647;-75
2023/03/29 06:28:16;;;;;;;11.57;9.53;;;31.00;78.10;;;;;;1863710;75;21317;-75
2023/03/29 06:30:52;;;;;;;15.45;10.55;;;31.00;78.90;;;;;;1871750;76;21315;-75
2023/03/29 06:33:24;;;;;;;13.30;11.25;;;31.00;77.70;;;;;;1872305;76;21203;-75
2023/03/29 06:35:55;;;;;;;13.08;10.43;;;31.00;78.40;;;;;;1854471;76;21171;-75
2023/03/29 06:38:27;;;;;;;11.45;9.80;;;31.00;77.60;;;;;;1859110;76;21204;-75
2023/03/29 06:41:05;;;;;;;13.90;9.58;;;31.00;78.00;;;;;;1859924;75;21565;-76
2023/03/29 06:43:37;;;;;;;11.90;10.32;;;30.90;78.30;;;;;;1850993;76;21133;-75
2023/03/29 06:46:10;;;;;;;11.00;9.90;;;30.90;78.60;;;;;;1808549;79;21168;-75
2023/03/29 06:48:41;;;;;;;11.78;10.60;;;30.80;78.30;;;;;;1866717;76;21214;-74
2023/03/29 06:51:12;;;;;;;12.18;10.90;;;30.80;78.30;;;;;;1867193;76;21118;-75
2023/03/29 06:53:43;;;;;;;11.73;10.25;;;30.70;78.30;;;;;;1873332;76;21083;-73
2023/03/29 06:56:14;;;;;;;15.15;10.40;;;30.70;79.50;;;;;;1872490;76;21113;-72
2023/03/29 06:58:46;;;;;;;12.50;10.88;;;30.60;79.90;;;;;;1875088;75;21717;-73
2023/03/29 07:01:17;;;;;;;11.40;9.98;;;30.60;80.20;;;;;;1872709;76;21126;-73
2023/03/29 07:03:48;;;;;;;12.20;10.90;;;30.50;80.70;;;;;;1853471;76;21218;-72
2023/03/29 07:06:21;;;;;;;14.35;11.28;;;30.50;81.80;;;;;;1867173;75;21168;-72
2023/03/29 07:08:52;;;;;;;12.47;11.18;;;30.40;82.20;;;;;;1869474;76;21957;-74
2023/03/29 07:11:24;;;;;;;12.98;11.45;;;30.40;82.50;;;;;;1846668;77;21170;-72
2023/03/29 07:13:55;;;;;;;14.15;11.60;;;30.40;84.10;;;;;;1831594;78;21204;-74
2023/03/29 07:16:26;;;;;;;13.28;11.50;;;30.30;86.40;;;;;;1853732;76;21103;-73
2023/03/29 07:18:57;;;;;;;12.70;11.43;;;30.30;86.70;;;;;;1864403;76;21151;-72
2023/03/29 07:21:29;;;;;;;14.35;11.68;;;30.20;86.60;;;;;;1859125;76;21211;-73
2023/03/29 07:24:00;;;;;;;15.32;12.05;;;30.20;86.30;;;;;;1836390;78;21915;-73
2023/03/29 07:26:31;;;;;;;14.30;12.75;;;30.10;86.40;;;;;;1870286;76;21128;-74
2023/03/29 07:29:03;;;;;;;18.60;12.90;;;30.10;86.30;;;;;;1870252;76;21192;-73
2023/03/29 07:31:34;;;;;;;13.38;12.07;;;30.10;87.30;;;;;;1870538;76;21126;-72
2023/03/29 07:34:09;;;;;;;15.55;12.78;;;30.10;87.40;;;;;;1856937;76;21435;-72
2023/03/29 07:36:42;;;;;;;11.97;10.58;;;30.10;86.40;;;;;;1854978;76;21123;-73
2023/03/29 07:39:12;;;;;;;12.05;10.78;;;30.10;85.80;;;;;;1870118;76;21298;-73
2023/03/29 07:41:45;;;;;;;20.20;13.85;;;30.00;86.20;;;;;;1868702;76;21244;-73
2023/03/29 07:44:16;;;;;;;14.03;10.95;;;30.00;86.50;;;;;;1868935;76;21067;-74
2023/03/29 07:46:48;;;;;;;11.90;10.58;;;30.00;86.50;;;;;;1866193;76;21583;-75
2023/03/29 07:49:19;;;;;;;12.40;11.20;;;30.00;86.20;;;;;;1881782;76;21630;-73
2023/03/29 07:51:51;;;;;;;14.70;11.38;;;30.00;86.10;;;;;;1871189;76;21171;-74
2023/03/29 07:54:23;;;;;;;17.98;13.75;;;30.00;86.40;;;;;;1871530;76;21371;-74
2023/03/29 07:56:55;;;;;;;15.45;12.70;;;30.00;86.60;;;;;;1863059;76;21217;-73
2023/03/29 07:59:26;;;;;;;18.05;12.65;;;30.00;86.70;;;;;;1868417;76;21589;-75
2023/03/29 08:01:57;;;;;;;13.80;12.40;;;30.00;88.30;;;;;;1876281;76;21205;-75
2023/03/29 08:04:28;;;;;;;13.75;12.03;;;30.10;89.30;;;;;;1880780;76;21150;-75
2023/03/29 08:07:00;;;;;;;14.25;11.28;;;30.10;89.50;;;;;;1857889;76;21106;-74
2023/03/29 08:09:32;;;;;;;20.75;13.18;;;30.10;89.60;;;;;;1884031;76;21566;-74
2023/03/29 08:12:03;;;;;;;17.60;11.90;;;30.20;89.50;;;;;;1880712;74;21480;-73
2023/03/29 08:14:34;;;;;;;15.78;12.53;;;30.30;89.60;;;;;;1876365;76;21100;-74
2023/03/29 08:17:07;;;;;;;12.73;11.05;;;30.40;88.60;;;;;;1893863;75;21111;-73
2023/03/29 08:19:39;;;;;;;13.10;11.03;;;30.50;87.80;;;;;;1883064;75;21455;-72
2023/03/29 08:22:11;;;;;;;12.33;11.08;;;30.60;87.70;;;;;;1904413;75;21162;-74
2023/03/29 08:24:43;;;;;;;14.00;12.18;;;30.60;88.10;;;;;;1905330;75;21127;-74
2023/03/29 08:27:14;;;;;;;14.60;11.63;;;30.70;85.60;;;;;;1877462;74;21682;-75
2023/03/29 08:29:46;;;;;;;12.60;11.28;;;30.70;85.40;;;;;;1877533;76;21207;-74
2023/03/29 08:32:17;;;;;;;13.80;11.68;;;30.80;85.60;;;;;;1872809;75;21133;-73
2023/03/29 08:34:48;;;;;;;13.68;12.13;;;30.80;85.40;;;;;;1879185;75;21905;-72
2023/03/29 08:37:19;;;;;;;13.58;11.63;;;30.80;84.90;;;;;;1870102;75;21124;-74
2023/03/29 08:39:50;;;;;;;15.50;11.53;;;30.80;84.30;;;;;;1876982;75;21111;-74
2023/03/29 08:42:40;;;;;;;16.70;11.53;;;30.80;83.60;;;;;;1848164;76;21112;-74
2023/03/29 08:45:32;;;;;;;13.68;11.33;;;30.80;83.60;;;;;;1884313;75;21150;-74
2023/03/29 08:48:05;;;;;;;20.43;11.88;;;30.80;83.60;;;;;;1889487;75;21170;-74
2023/03/29 08:50:40;;;;;;;17.12;12.03;;;30.90;83.70;;;;;;1881351;75;21547;-74
2023/03/29 08:53:16;;;;;;;19.15;11.95;;;30.90;83.40;;;;;;1839118;76;21148;-74
2023/03/29 08:55:48;;;;;;;42.45;15.58;;;31.00;82.80;;;;;;1880788;75;21416;-74
2023/03/29 08:58:24;;;;;;;16.85;11.97;;;31.00;82.90;;;;;;1880854;75;21158;-75
2023/03/29 09:00:59;;;;;;;15.67;12.10;;;31.00;83.10;;;;;;1879229;75;21112;-74
2023/03/29 09:03:51;;;;;;;13.05;11.25;;;31.00;82.80;;;;;;1876503;74;21250;-73
2023/03/29 09:06:23;;;;;;;14.40;10.80;;;31.00;82.80;;;;;;1872651;76;21119;-76
2023/03/29 09:08:54;;;;;;;16.15;11.40;;;31.00;82.30;;;;;;1868007;76;21144;-75
2023/03/29 09:11:40;;;;;;;16.90;10.88;;;31.00;82.10;;;;;;1862693;76;21190;-75
2023/03/29 09:14:38;;;;;;;11.60;10.43;;;31.00;82.40;;;;;;1865249;75;21144;-73
2023/03/29 09:17:27;;;;;;;14.18;11.25;;;31.00;82.50;;;;;;1861050;75;21223;-74
2023/03/29 09:20:07;;;;;;;12.00;10.80;;;30.90;82.50;;;;;;1819015;75;22056;-75
2023/03/29 09:23:11;;;;;;;13.95;11.10;;;31.00;82.30;;;;;;1878732;75;21653;-74
2023/03/29 09:26:02;;;;;;;13.78;11.38;;;31.00;82.60;;;;;;1856401;76;21406;-74
2023/03/29 09:28:45;;;;;;;13.00;10.78;;;30.90;82.70;;;;;;1887989;75;21132;-74
2023/03/29 09:31:24;;;;;;;12.82;11.12;;;30.90;82.70;;;;;;1865391;76;21703;-73
2023/03/29 09:34:01;;;;;;;13.45;11.40;;;30.90;82.80;;;;;;1843955;76;21129;-74
2023/03/29 09:36:43;;;;;;;13.28;11.18;;;30.90;82.40;;;;;;1860860;75;21167;-74
2023/03/29 09:39:15;;;;;;;13.03;11.38;;;30.90;82.20;;;;;;1849016;75;21147;-75
2023/03/29 09:42:06;;;;;;;14.45;11.18;;;31.00;82.10;;;;;;1864110;76;21136;-73
2023/03/29 09:44:42;;;;;;;12.25;10.00;;;31.00;81.80;;;;;;1867877;75;21854;-75
2023/03/29 09:47:33;;;;;;;12.25;10.82;;;31.00;81.30;;;;;;1869705;75;21248;-74
2023/03/29 09:50:14;;;;;;;14.13;10.38;;;31.10;79.70;;;;;;1864365;75;21376;-74
2023/03/29 09:52:48;;;;;;;15.00;10.68;;;31.10;79.80;;;;;;1876166;75;21244;-75
2023/03/29 09:55:21;;;;;;;11.70;10.50;;;31.10;79.70;;;;;;1872381;75;21145;-74
2023/03/29 09:57:53;;;;;;;14.83;10.68;;;31.10;79.80;;;;;;1871170;75;21439;-75
2023/03/29 10:00:24;;;;;;;12.95;10.18;;;31.20;79.90;;;;;;1870927;75;21110;-75
2023/03/29 10:02:57;;;;;;;16.65;9.83;;;31.10;80.40;;;;;;1857646;75;21194;-74
2023/03/29 10:05:31;;;;;;;10.93;9.78;;;31.20;80.40;;;;;;1870757;75;21574;-76
2023/03/29 10:08:04;;;;;;;11.18;10.05;;;31.10;79.80;;;;;;1868992;76;21119;-74
2023/03/29 10:10:36;;;;;;;14.15;10.85;;;31.10;79.70;;;;;;1889729;75;21241;-75
2023/03/29 10:13:10;;;;;;;16.30;11.55;;;31.10;79.80;;;;;;1877941;76;22004;-75
2023/03/29 10:15:42;;;;;;;13.98;11.00;;;31.10;79.50;;;;;;1892894;76;21233;-76
2023/03/29 10:18:15;;;;;;;11.85;10.55;;;31.00;79.70;;;;;;1864336;75;21230;-76
2023/03/29 10:20:47;;;;;;;17.12;10.95;;;31.00;79.70;;;;;;1859141;75;21448;-76
2023/03/29 10:23:19;;;;;;;13.00;10.63;;;31.00;80.10;;;;;;1890030;75;21644;-76
2023/03/29 10:25:50;;;;;;;16.73;10.98;;;30.90;80.30;;;;;;1876386;75;22017;-77
2023/03/29 10:28:23;;;;;;;13.98;10.35;;;30.90;80.70;;;;;;1873000;76;21128;-76
2023/03/29 10:30:57;;;;;;;12.03;10.05;;;30.90;81.30;;;;;;1878534;76;21143;-76
2023/03/29 10:33:30;;;;;;;13.10;10.03;;;30.90;81.40;;;;;;1876906;75;21198;-74
2023/03/29 10:36:03;;;;;;;12.30;10.32;;;30.80;81.50;;;;;;1852607;76;21145;-74
2023/03/29 10:38:36;;;;;;;13.90;9.63;;;30.80;81.90;;;;;;1877671;75;21144;-74
2023/03/29 10:41:12;;;;;;;13.78;12.18;;;30.80;82.30;;;;;;1880868;75;21226;-73
2023/03/29 10:43:49;;;;;;;14.43;11.93;;;30.80;84.30;;;;;;1885080;76;21102;-75
2023/03/29 10:46:31;;;;;;;18.42;13.68;;;30.70;84.90;;;;;;1863496;75;21635;-75
2023/03/29 10:49:08;;;;;;;15.93;14.33;;;30.60;86.10;;;;;;1888601;76;21136;-74
2023/03/29 10:51:37;;;;;;;17.70;14.53;;;30.60;87.00;;;;;;1859852;76;21137;-77
2023/03/29 10:54:11;;;;;;;20.15;13.60;;;30.50;88.00;;;;;;1872352;76;21165;-77
2023/03/29 10:56:45;;;;;;;18.55;13.48;;;30.50;88.60;;;;;;1872274;75;21142;-77
2023/03/29 10:59:31;;;;;;;15.45;13.93;;;30.40;88.70;;;;;;1856069;76;21165;-76
2023/03/29 11:02:17;;;;;;;21.42;14.75;;;30.30;89.20;;;;;;1805867;78;21183;-75
2023/03/29 11:04:55;;;;;;;14.73;13.22;;;30.30;89.60;;;;;;1862995;76;21217;-76
2023/03/29 11:07:34;;;;;;;16.75;13.72;;;30.20;89.40;;;;;;1865707;74;21139;-75
2023/03/29 11:10:24;;;;;;;16.52;14.50;;;30.20;89.70;;;;;;1843819;76;21146;-76
2023/03/29 11:13:15;;;;;;;15.05;13.45;;;30.10;90.00;;;;;;1841318;76;21662;-77
2023/03/29 11:15:48;;;;;;;15.32;13.72;;;30.10;90.10;;;;;;1812725;79;21163;-75
2023/03/29 11:18:58;;;;;;;14.28;12.78;;;30.10;90.20;;;;;;1840580;77;21241;-75
2023/03/29 11:21:35;;;;;;;17.40;13.80;;;30.00;90.20;;;;;;1839249;76;21218;-75
2023/03/29 11:24:09;;;;;;;15.50;13.22;;;30.00;90.20;;;;;;1844966;76;21193;-75
2023/03/29 11:27:14;;;;;;;15.15;13.40;;;29.90;90.30;;;;;;1838164;77;21144;-76
2023/03/29 11:29:50;;;;;;;14.73;12.33;;;29.90;90.10;;;;;;1824837;78;21156;-73
2023/03/29 11:32:31;;;;;;;;;;;29.80;89.80;;;;;;1838032;76;21180;-76
2023/03/29 11:35:27;;;;;;;13.32;11.53;;;29.70;89.60;;;;;;1827981;78;20191;-76
2023/03/29 11:38:19;;;;;;;14.85;12.55;;;29.70;89.50;;;;;;1838831;77;21253;-75
2023/03/29 11:41:04;;;;;;;17.25;14.28;;;29.70;89.30;;;;;;1848087;76;21231;-75
2023/03/29 11:43:37;;;;;;;18.35;14.43;;;29.70;89.30;;;;;;1842642;76;21141;-75
2023/03/29 11:46:20;;;;;;;23.30;14.53;;;29.60;88.80;;;;;;1837129;77;21463;-75
2023/03/29 11:48:54;;;;;;;14.13;12.50;;;29.60;89.20;;;;;;1838510;78;21171;-76
2023/03/29 11:51:31;;;;;;;16.82;12.68;;;29.60;89.20;;;;;;1840176;78;21143;-76
2023/03/29 11:54:22;;;;;;;17.23;11.73;;;29.60;89.00;;;;;;1826660;77;21598;-76
2023/03/29 11:57:01;;;;;;;15.20;11.90;;;29.60;89.10;;;;;;1755468;79;21322;-76
2023/03/29 11:59:52;;;;;;;17.10;12.85;;;29.50;88.70;;;;;;1766443;78;21130;-75
2023/03/29 12:02:26;;;;;;;14.80;12.78;;;29.50;88.30;;;;;;1817412;77;21144;-74
2023/03/29 12:05:00;;;;;;;13.53;12.18;;;29.50;88.20;;;;;;1848025;76;21160;-75
2023/03/29 12:07:39;;;;;;;14.23;12.78;;;29.40;88.00;;;;;;1846649;76;21187;-76
2023/03/29 12:10:25;;;;;;;16.05;12.65;;;29.40;88.60;;;;;;1863009;74;21946;-75
2023/03/29 12:13:04;;;;;;;14.80;12.73;;;29.40;88.40;;;;;;1871158;74;21139;-76
2023/03/29 12:15:48;;;;;;;15.15;12.63;;;29.30;88.50;;;;;;1875311;76;21969;-75
2023/03/29 12:18:38;;;;;;;18.67;12.93;;;29.30;88.90;;;;;;1874247;75;21142;-76
2023/03/29 12:21:20;;;;;;;17.20;12.65;;;29.30;89.00;;;;;;1870306;75;21953;-76
2023/03/29 12:23:52;;;;;;;16.50;12.63;;;29.20;89.00;;;;;;1868323;76;21169;-76
2023/03/29 12:26:39;;;;;;;13.43;11.85;;;29.20;89.20;;;;;;1862359;74;21143;-76
2023/03/29 12:29:47;;;;;;;14.85;12.33;;;29.20;89.40;;;;;;1875886;74;21350;-76
2023/03/29 12:32:37;;;;;;;17.30;14.33;;;29.10;89.60;;;;;;1876889;76;21159;-74
2023/03/29 12:35:36;;;;;;;14.95;12.98;;;29.10;89.50;;;;;;1811091;78;21151;-75
2023/03/29 12:38:19;;;;;;;15.68;13.40;;;29.10;90.20;;;;;;1870948;76;21449;-75
2023/03/29 12:40:59;;;;;;;16.02;13.62;;;29.00;89.30;;;;;;1867337;75;21257;-78
2023/03/29 12:43:38;;;;;;;15.40;13.13;;;29.00;89.20;;;;;;1875482;76;21127;-80
2023/03/29 12:46:12;;;;;;;17.42;12.98;;;29.00;89.90;;;;;;1869623;74;21096;-79
2023/03/29 12:48:46;;;;;;;16.10;12.88;;;29.00;90.00;;;;;;1867607;76;21163;-79
2023/03/29 12:51:20;;;;;;;14.50;12.85;;;29.00;90.10;;;;;;1866301;76;21123;-81
2023/03/29 12:53:53;;;;;;;16.23;12.43;;;28.90;90.10;;;;;;1875462;76;21144;-80
2023/03/29 12:56:27;;;;;;;13.85;12.50;;;28.90;90.10;;;;;;1871555;75;21229;-82
2023/03/29 12:59:09;;;;;;;13.80;12.40;;;28.90;90.20;;;;;;1870992;76;21194;-79
2023/03/29 13:01:45;;;;;;;16.87;12.75;;;28.80;90.20;;;;;;1875015;76;21157;-79
2023/03/29 13:04:21;;;;;;;15.53;13.05;;;28.80;90.10;;;;;;1848496;75;21123;-80
2023/03/29 13:07:39;;;;;;;14.55;12.60;;;28.80;90.30;;;;;;1765760;80;21184;-82
2023/03/29 13:10:09;;;;;;;15.08;13.48;;;28.80;90.30;;;;;;1762859;80;21150;-79
2023/03/29 13:12:44;;;;;;;14.33;12.70;;;28.70;90.50;;;;;;1753409;81;21223;-80